sensor_id;sensor_type;location;lat;lon;timestamp;pressure;altitude;pressure_sealevel;temperature;humidity
62124;BME280;48110;47.532;19.078;2023-03-31T00:00:56;100027.88;;;8.26;100.00
62124;BME280;48110;47.532;19.078;2023-03-31T00:04:04;100021.75;;;8.26;100.00
62124;BME280;48110;47.532;19.078;2023-03-31T00:07:16;100010.34;;;8.25;100.00
62124;BME280;48110;47.532;19.078;2023-03-31T00:10:28;100017.47;;;8.25;100.00
62124;BME280;48110;47.532;19.078;2023-03-31T00:13:38;100020.78;;;8.27;100.00
62124;BME280;48110;47.532;19.078;2023-03-31T00:16:47;100022.12;;;8.31;100.00
62124;BME280;48110;47.532;19.078;2023-03-31T00:19:53;100009.25;;;8.36;100.00
62124;BME280;48110;47.532;19.078;2023-03-31T00:23:06;99994.88;;;8.39;100.00
62124;BME280;48110;47.532;19.078;2023-03-31T00:26:15;99999.66;;;8.35;100.00
62124;BME280;48110;47.532;19.078;2023-03-31T00:29:26;99996.81;;;8.28;100.00
62124;BME280;48110;47.532;19.078;2023-03-31T00:32:34;99992.00;;;8.24;100.00
62124;BME280;48110;47.532;19.078;2023-03-31T00:35:43;99997.12;;;8.17;100.00
62124;BME280;48110;47.532;19.078;2023-03-31T00:38:58;99996.94;;;8.11;100.00
62124;BME280;48110;47.532;19.078;2023-03-31T00:42:06;99991.47;;;8.04;100.00
62124;BME280;48110;47.532;19.078;2023-03-31T00:48:23;99977.91;;;7.91;100.00
62124;BME280;48110;47.532;19.078;2023-03-31T00:51:31;99982.50;;;7.89;100.00
62124;BME280;48110;47.532;19.078;2023-03-31T00:54:42;99977.41;;;7.96;100.00
62124;BME280;48110;47.532;19.078;2023-03-31T00:57:51;99980.59;;;8.07;100.00
62124;BME280;48110;47.532;19.078;2023-03-31T01:01:02;99981.94;;;8.19;100.00
62124;BME280;48110;47.532;19.078;2023-03-31T01:04:10;99982.91;;;8.18;100.00
62124;BME280;48110;47.532;19.078;2023-03-31T01:07:25;99978.94;;;8.14;100.00
62124;BME280;48110;47.532;19.078;2023-03-31T01:10:35;99970.50;;;8.03;100.00
62124;BME280;48110;47.532;19.078;2023-03-31T01:13:48;99966.91;;;8.12;100.00
62124;BME280;48110;47.532;19.078;2023-03-31T01:16:57;99972.66;;;8.07;100.00
62124;BME280;48110;47.532;19.078;2023-03-31T01:43:39;99971.69;;;8.08;100.00
62124;BME280;48110;47.532;19.078;2023-03-31T01:53:35;99977.97;;;8.15;100.00
62124;BME280;48110;47.532;19.078;2023-03-31T01:56:46;99970.03;;;8.23;100.00
62124;BME280;48110;47.532;19.078;2023-03-31T02:03:34;99969.87;;;8.25;100.00
62124;BME280;48110;47.532;19.078;2023-03-31T02:06:49;99965.47;;;8.58;100.00
62124;BME280;48110;47.532;19.078;2023-03-31T02:10:02;99962.87;;;8.66;100.00
62124;BME280;48110;47.532;19.078;2023-03-31T02:13:12;99963.34;;;8.61;100.00
62124;BME280;48110;47.532;19.078;2023-03-31T02:16:24;99960.56;;;8.71;100.00
62124;BME280;48110;47.532;19.078;2023-03-31T02:19:34;99968.81;;;8.52;100.00
62124;BME280;48110;47.532;19.078;2023-03-31T02:22:49;99959.56;;;8.80;100.00
62124;BME280;48110;47.532;19.078;2023-03-31T02:26:19;99955.72;;;8.83;100.00
62124;BME280;48110;47.532;19.078;2023-03-31T02:29:27;99953.53;;;9.10;100.00
62124;BME280;48110;47.532;19.078;2023-03-31T02:32:42;99949.72;;;9.29;100.00
62124;BME280;48110;47.532;19.078;2023-03-31T02:35:52;99949.06;;;9.19;100.00
62124;BME280;48110;47.532;19.078;2023-03-31T02:39:05;99955.25;;;8.95;100.00
62124;BME280;48110;47.532;19.078;2023-03-31T02:42:14;99948.31;;;8.70;100.00
62124;BME280;48110;47.532;19.078;2023-03-31T02:48:52;99945.00;;;8.76;100.00
62124;BME280;48110;47.532;19.078;2023-03-31T02:52:25;99940.34;;;8.78;100.00
62124;BME280;48110;47.532;19.078;2023-03-31T02:55:43;99932.78;;;8.59;100.00
62124;BME280;48110;47.532;19.078;2023-03-31T03:05:34;99931.09;;;8.82;100.00
62124;BME280;48110;47.532;19.078;2023-03-31T03:08:54;99936.38;;;8.82;100.00
62124;BME280;48110;47.532;19.078;2023-03-31T03:15:17;99938.31;;;9.12;100.00
62124;BME280;48110;47.532;19.078;2023-03-31T03:18:28;99938.84;;;9.08;100.00
62124;BME280;48110;47.532;19.078;2023-03-31T03:21:40;99940.13;;;9.12;100.00
62124;BME280;48110;47.532;19.078;2023-03-31T03:24:47;99937.34;;;9.13;100.00
62124;BME280;48110;47.532;19.078;2023-03-31T03:27:59;99935.31;;;9.15;100.00
62124;BME280;48110;47.532;19.078;2023-03-31T03:31:06;99937.50;;;9.12;100.00
62124;BME280;48110;47.532;19.078;2023-03-31T03:34:20;99940.47;;;9.17;100.00
62124;BME280;48110;47.532;19.078;2023-03-31T03:37:30;99936.31;;;9.23;100.00
62124;BME280;48110;47.532;19.078;2023-03-31T03:40:40;99933.00;;;9.29;100.00
62124;BME280;48110;47.532;19.078;2023-03-31T03:43:46;99936.47;;;9.29;100.00
62124;BME280;48110;47.532;19.078;2023-03-31T03:46:52;99948.37;;;9.25;100.00
62124;BME280;48110;47.532;19.078;2023-03-31T03:50:01;99944.25;;;9.23;100.00
62124;BME280;48110;47.532;19.078;2023-03-31T03:53:13;99944.75;;;9.18;100.00
62124;BME280;48110;47.532;19.078;2023-03-31T03:56:20;99943.13;;;9.09;100.00
62124;BME280;48110;47.532;19.078;2023-03-31T03:59:28;99945.81;;;8.93;100.00
62124;BME280;48110;47.532;19.078;2023-03-31T04:02:35;99956.06;;;8.88;100.00
62124;BME280;48110;47.532;19.078;2023-03-31T04:05:43;99959.72;;;8.54;100.00
62124;BME280;48110;47.532;19.078;2023-03-31T04:08:50;99954.06;;;8.33;100.00
62124;BME280;48110;47.532;19.078;2023-03-31T04:12:00;99951.28;;;8.35;100.00
62124;BME280;48110;47.532;19.078;2023-03-31T04:15:09;99952.44;;;8.32;100.00
62124;BME280;48110;47.532;19.078;2023-03-31T04:18:17;99942.78;;;8.23;100.00
62124;BME280;48110;47.532;19.078;2023-03-31T04:21:29;99937.00;;;8.11;100.00
62124;BME280;48110;47.532;19.078;2023-03-31T04:24:39;99936.81;;;7.89;100.00
62124;BME280;48110;47.532;19.078;2023-03-31T04:27:46;99926.38;;;7.87;100.00
62124;BME280;48110;47.532;19.078;2023-03-31T04:31:01;99932.50;;;7.87;100.00
62124;BME280;48110;47.532;19.078;2023-03-31T04:34:13;99940.91;;;7.83;100.00
62124;BME280;48110;47.532;19.078;2023-03-31T04:37:21;99931.09;;;8.17;100.00
62124;BME280;48110;47.532;19.078;2023-03-31T04:40:33;99931.75;;;8.27;100.00
62124;BME280;48110;47.532;19.078;2023-03-31T04:43:42;99923.84;;;8.36;100.00
62124;BME280;48110;47.532;19.078;2023-03-31T04:46:49;99916.91;;;8.59;100.00
62124;BME280;48110;47.532;19.078;2023-03-31T04:49:57;99922.84;;;8.85;100.00
62124;BME280;48110;47.532;19.078;2023-03-31T04:53:03;99915.88;;;9.00;100.00
62124;BME280;48110;47.532;19.078;2023-03-31T04:56:12;99922.44;;;9.12;100.00
62124;BME280;48110;47.532;19.078;2023-03-31T04:59:18;99924.34;;;9.35;100.00
62124;BME280;48110;47.532;19.078;2023-03-31T05:02:26;99923.47;;;9.50;100.00
62124;BME280;48110;47.532;19.078;2023-03-31T05:05:33;99914.69;;;9.58;100.00
62124;BME280;48110;47.532;19.078;2023-03-31T05:08:39;99920.41;;;9.70;100.00
62124;BME280;48110;47.532;19.078;2023-03-31T05:11:45;99914.88;;;9.79;100.00
62124;BME280;48110;47.532;19.078;2023-03-31T05:14:51;99920.31;;;9.86;100.00
62124;BME280;48110;47.532;19.078;2023-03-31T05:17:59;99914.50;;;9.90;100.00
62124;BME280;48110;47.532;19.078;2023-03-31T05:21:09;99916.25;;;9.98;100.00
62124;BME280;48110;47.532;19.078;2023-03-31T05:24:14;99909.63;;;10.02;100.00
62124;BME280;48110;47.532;19.078;2023-03-31T05:27:19;99906.47;;;10.07;100.00
62124;BME280;48110;47.532;19.078;2023-03-31T05:30:27;99902.78;;;10.16;100.00
62124;BME280;48110;47.532;19.078;2023-03-31T05:33:32;99901.25;;;10.21;100.00
62124;BME280;48110;47.532;19.078;2023-03-31T05:36:36;99904.28;;;10.33;100.00
62124;BME280;48110;47.532;19.078;2023-03-31T05:39:40;99911.19;;;10.42;100.00
62124;BME280;48110;47.532;19.078;2023-03-31T05:42:45;99912.06;;;10.57;100.00
62124;BME280;48110;47.532;19.078;2023-03-31T05:45:50;99905.78;;;10.73;100.00
62124;BME280;48110;47.532;19.078;2023-03-31T05:48:53;99907.09;;;10.92;100.00
62124;BME280;48110;47.532;19.078;2023-03-31T05:51:58;99901.78;;;11.06;100.00
62124;BME280;48110;47.532;19.078;2023-03-31T05:55:06;99902.06;;;11.26;100.00
62124;BME280;48110;47.532;19.078;2023-03-31T05:58:12;99897.59;;;11.41;100.00
62124;BME280;48110;47.532;19.078;2023-03-31T06:01:16;99894.44;;;11.52;100.00
62124;BME280;48110;47.532;19.078;2023-03-31T06:04:26;99892.69;;;11.59;100.00
62124;BME280;48110;47.532;19.078;2023-03-31T06:07:30;99896.28;;;11.66;100.00
62124;BME280;48110;47.532;19.078;2023-03-31T06:10:36;99901.03;;;11.71;100.00
62124;BME280;48110;47.532;19.078;2023-03-31T06:13:43;99894.41;;;11.67;100.00
62124;BME280;48110;47.532;19.078;2023-03-31T06:16:49;99898.28;;;11.79;100.00
62124;BME280;48110;47.532;19.078;2023-03-31T06:19:53;99897.19;;;11.73;100.00
62124;BME280;48110;47.532;19.078;2023-03-31T06:22:57;99892.69;;;11.74;100.00
62124;BME280;48110;47.532;19.078;2023-03-31T06:26:03;99887.78;;;11.92;100.00
62124;BME280;48110;47.532;19.078;2023-03-31T06:29:09;99888.59;;;11.93;100.00
62124;BME280;48110;47.532;19.078;2023-03-31T06:32:15;99894.87;;;12.06;100.00
62124;BME280;48110;47.532;19.078;2023-03-31T06:35:22;99885.03;;;12.49;100.00
62124;BME280;48110;47.532;19.078;2023-03-31T06:38:27;99893.78;;;12.92;100.00
62124;BME280;48110;47.532;19.078;2023-03-31T06:41:32;99888.88;;;13.24;100.00
62124;BME280;48110;47.532;19.078;2023-03-31T06:44:37;99888.69;;;13.73;100.00
62124;BME280;48110;47.532;19.078;2023-03-31T06:47:40;99887.44;;;13.75;100.00
62124;BME280;48110;47.532;19.078;2023-03-31T06:50:46;99891.91;;;14.35;100.00
62124;BME280;48110;47.532;19.078;2023-03-31T06:53:51;99885.97;;;14.99;100.00
62124;BME280;48110;47.532;19.078;2023-03-31T06:56:55;99887.00;;;15.69;96.77
62124;BME280;48110;47.532;19.078;2023-03-31T07:00:04;99888.75;;;15.37;92.65
62124;BME280;48110;47.532;19.078;2023-03-31T07:03:08;99887.34;;;15.79;89.24
62124;BME280;48110;47.532;19.078;2023-03-31T07:06:12;99884.59;;;16.30;82.30
62124;BME280;48110;47.532;19.078;2023-03-31T07:09:16;99881.38;;;16.46;82.40
62124;BME280;48110;47.532;19.078;2023-03-31T07:12:20;99880.03;;;17.05;76.05
62124;BME280;48110;47.532;19.078;2023-03-31T07:15:27;99877.41;;;17.60;72.95
62124;BME280;48110;47.532;19.078;2023-03-31T07:18:31;99885.22;;;17.61;69.69
62124;BME280;48110;47.532;19.078;2023-03-31T07:21:37;99872.63;;;17.92;69.82
62124;BME280;48110;47.532;19.078;2023-03-31T07:24:41;99877.06;;;18.28;67.49
62124;BME280;48110;47.532;19.078;2023-03-31T07:27:44;99875.88;;;19.00;63.46
62124;BME280;48110;47.532;19.078;2023-03-31T07:30:47;99872.69;;;19.38;61.29
62124;BME280;48110;47.532;19.078;2023-03-31T07:33:50;99873.56;;;17.67;69.41
62124;BME280;48110;47.532;19.078;2023-03-31T07:36:54;99867.66;;;18.07;66.38
62124;BME280;48110;47.532;19.078;2023-03-31T07:39:59;99861.69;;;18.35;67.57
62124;BME280;48110;47.532;19.078;2023-03-31T07:43:04;99860.91;;;19.79;62.54
62124;BME280;48110;47.532;19.078;2023-03-31T07:46:19;99856.00;;;19.12;63.58
62124;BME280;48110;47.532;19.078;2023-03-31T07:49:26;99848.84;;;18.37;66.78
62124;BME280;48110;47.532;19.078;2023-03-31T07:52:31;99856.03;;;19.64;63.21
62124;BME280;48110;47.532;19.078;2023-03-31T07:55:36;99845.00;;;20.72;59.69
62124;BME280;48110;47.532;19.078;2023-03-31T07:58:39;99831.78;;;19.24;62.83
62124;BME280;48110;47.532;19.078;2023-03-31T08:01:45;99838.84;;;19.65;63.42
62124;BME280;48110;47.532;19.078;2023-03-31T08:04:49;99840.78;;;18.37;67.53
62124;BME280;48110;47.532;19.078;2023-03-31T08:07:54;99839.66;;;19.94;62.14
62124;BME280;48110;47.532;19.078;2023-03-31T08:10:58;99837.50;;;20.41;58.88
62124;BME280;48110;47.532;19.078;2023-03-31T08:14:03;99836.03;;;18.97;64.26
62124;BME280;48110;47.532;19.078;2023-03-31T08:17:09;99828.63;;;19.67;63.93
62124;BME280;48110;47.532;19.078;2023-03-31T08:20:15;99821.09;;;20.59;58.27
62124;BME280;48110;47.532;19.078;2023-03-31T08:23:20;99815.66;;;18.19;66.60
62124;BME280;48110;47.532;19.078;2023-03-31T08:26:25;99814.00;;;17.29;74.37
62124;BME280;48110;47.532;19.078;2023-03-31T08:29:31;99797.72;;;18.55;70.30
62124;BME280;48110;47.532;19.078;2023-03-31T08:32:34;99804.91;;;19.64;64.10
62124;BME280;48110;47.532;19.078;2023-03-31T08:35:38;99795.50;;;18.75;68.22
62124;BME280;48110;47.532;19.078;2023-03-31T08:38:42;99781.38;;;20.05;63.58
62124;BME280;48110;47.532;19.078;2023-03-31T08:45:01;99777.66;;;20.56;60.20
62124;BME280;48110;47.532;19.078;2023-03-31T08:48:11;99767.53;;;20.85;58.78
62124;BME280;48110;47.532;19.078;2023-03-31T08:51:21;99756.13;;;18.46;63.80
62124;BME280;48110;47.532;19.078;2023-03-31T08:54:32;99758.31;;;18.84;64.61
62124;BME280;48110;47.532;19.078;2023-03-31T09:00:54;99748.44;;;20.86;57.76
62124;BME280;48110;47.532;19.078;2023-03-31T09:13:52;99727.13;;;17.18;71.99
62124;BME280;48110;47.532;19.078;2023-03-31T09:17:15;99717.34;;;16.94;77.43
62124;BME280;48110;47.532;19.078;2023-03-31T09:20:24;99711.09;;;16.64;74.78
62124;BME280;48110;47.532;19.078;2023-03-31T09:23:33;99715.03;;;16.61;78.77
62124;BME280;48110;47.532;19.078;2023-03-31T09:26:43;99698.47;;;16.28;84.30
62124;BME280;48110;47.532;19.078;2023-03-31T09:33:08;99696.31;;;16.36;81.96
62124;BME280;48110;47.532;19.078;2023-03-31T09:36:15;99695.94;;;16.33;83.96
62124;BME280;48110;47.532;19.078;2023-03-31T09:39:23;99689.34;;;16.35;85.20
62124;BME280;48110;47.532;19.078;2023-03-31T09:42:27;99691.78;;;16.37;87.67
62124;BME280;48110;47.532;19.078;2023-03-31T09:45:31;99681.81;;;16.26;91.38
62124;BME280;48110;47.532;19.078;2023-03-31T09:48:40;99674.47;;;16.21;93.33
62124;BME280;48110;47.532;19.078;2023-03-31T09:59:02;99664.34;;;16.23;93.10
62124;BME280;48110;47.532;19.078;2023-03-31T10:02:26;99653.19;;;16.44;88.89
62124;BME280;48110;47.532;19.078;2023-03-31T10:05:36;99650.75;;;16.43;88.39
62124;BME280;48110;47.532;19.078;2023-03-31T10:08:47;99646.56;;;16.29;88.17
62124;BME280;48110;47.532;19.078;2023-03-31T10:11:54;99637.88;;;16.51;81.52
62124;BME280;48110;47.532;19.078;2023-03-31T10:15:01;99632.38;;;16.83;80.14
62124;BME280;48110;47.532;19.078;2023-03-31T10:18:12;99627.75;;;16.72;76.91
62124;BME280;48110;47.532;19.078;2023-03-31T10:21:23;99621.13;;;17.04;71.88
62124;BME280;48110;47.532;19.078;2023-03-31T10:24:36;99615.59;;;17.17;71.25
62124;BME280;48110;47.532;19.078;2023-03-31T10:27:42;99617.63;;;17.45;70.24
62124;BME280;48110;47.532;19.078;2023-03-31T10:30:52;99613.06;;;17.22;72.10
62124;BME280;48110;47.532;19.078;2023-03-31T10:33:57;99601.62;;;17.27;68.82
62124;BME280;48110;47.532;19.078;2023-03-31T10:37:03;99607.56;;;17.29;70.09
62124;BME280;48110;47.532;19.078;2023-03-31T10:40:18;99611.31;;;17.39;71.77
62124;BME280;48110;47.532;19.078;2023-03-31T10:43:31;99600.62;;;17.51;70.94
62124;BME280;48110;47.532;19.078;2023-03-31T10:46:49;99597.97;;;17.63;71.83
62124;BME280;48110;47.532;19.078;2023-03-31T10:49:56;99593.97;;;17.54;69.93
62124;BME280;48110;47.532;19.078;2023-03-31T10:53:08;99585.09;;;17.53;62.58
62124;BME280;48110;47.532;19.078;2023-03-31T10:59:21;99583.97;;;18.07;62.56
62124;BME280;48110;47.532;19.078;2023-03-31T11:12:31;99581.34;;;26.92;38.20
62124;BME280;48110;47.532;19.078;2023-03-31T11:28:38;99556.12;;;23.21;45.17
62124;BME280;48110;47.532;19.078;2023-03-31T11:31:51;99540.44;;;24.53;41.31
62124;BME280;48110;47.532;19.078;2023-03-31T11:42:07;99508.72;;;22.68;46.25
62124;BME280;48110;47.532;19.078;2023-03-31T11:45:22;99480.09;;;21.47;49.97
62124;BME280;48110;47.532;19.078;2023-03-31T11:51:58;99457.56;;;20.63;50.93
62124;BME280;48110;47.532;19.078;2023-03-31T11:55:04;99466.13;;;20.81;51.09
62124;BME280;48110;47.532;19.078;2023-03-31T11:58:11;99456.50;;;22.62;48.45
62124;BME280;48110;47.532;19.078;2023-03-31T12:01:24;99449.50;;;23.27;45.90
62124;BME280;48110;47.532;19.078;2023-03-31T12:04:38;99458.44;;;24.66;42.02
62124;BME280;48110;47.532;19.078;2023-03-31T12:11:06;99443.19;;;22.15;46.76
62124;BME280;48110;47.532;19.078;2023-03-31T12:14:20;99437.16;;;21.98;47.38
62124;BME280;48110;47.532;19.078;2023-03-31T12:17:27;99425.94;;;22.41;47.06
62124;BME280;48110;47.532;19.078;2023-03-31T12:20:39;99433.56;;;21.30;47.91
62124;BME280;48110;47.532;19.078;2023-03-31T12:23:46;99423.94;;;21.39;48.36
62124;BME280;48110;47.532;19.078;2023-03-31T12:30:47;99415.19;;;21.74;49.59
62124;BME280;48110;47.532;19.078;2023-03-31T12:33:26;99403.97;;;20.66;50.98
62124;BME280;48110;47.532;19.078;2023-03-31T12:53:11;99382.19;;;25.54;41.66
62124;BME280;48110;47.532;19.078;2023-03-31T12:56:20;99374.84;;;27.32;36.74
62124;BME280;48110;47.532;19.078;2023-03-31T12:59:36;99371.19;;;28.85;33.55
62124;BME280;48110;47.532;19.078;2023-03-31T13:02:41;99358.16;;;28.60;34.57
62124;BME280;48110;47.532;19.078;2023-03-31T13:05:45;99361.84;;;27.83;35.29
62124;BME280;48110;47.532;19.078;2023-03-31T13:08:57;99369.37;;;28.58;32.94
62124;BME280;48110;47.532;19.078;2023-03-31T13:12:11;99357.31;;;25.18;38.86
62124;BME280;48110;47.532;19.078;2023-03-31T13:15:16;99360.25;;;23.02;43.86
62124;BME280;48110;47.532;19.078;2023-03-31T13:18:19;99338.37;;;24.55;41.85
62124;BME280;48110;47.532;19.078;2023-03-31T13:21:25;99326.59;;;26.08;38.11
62124;BME280;48110;47.532;19.078;2023-03-31T13:24:33;99318.94;;;25.72;38.38
62124;BME280;48110;47.532;19.078;2023-03-31T13:27:45;99310.72;;;26.33;37.59
62124;BME280;48110;47.532;19.078;2023-03-31T13:30:57;99303.03;;;24.65;41.22
62124;BME280;48110;47.532;19.078;2023-03-31T13:34:03;99285.50;;;23.26;43.87
62124;BME280;48110;47.532;19.078;2023-03-31T13:40:25;99286.06;;;21.46;47.44
62124;BME280;48110;47.532;19.078;2023-03-31T13:47:04;99253.19;;;20.92;48.38
62124;BME280;48110;47.532;19.078;2023-03-31T14:03:16;99224.78;;;18.98;54.07
62124;BME280;48110;47.532;19.078;2023-03-31T14:06:34;99226.69;;;18.97;53.64
62124;BME280;48110;47.532;19.078;2023-03-31T14:09:41;99241.56;;;19.48;51.74
62124;BME280;48110;47.532;19.078;2023-03-31T14:13:03;99232.22;;;19.34;51.98
62124;BME280;48110;47.532;19.078;2023-03-31T14:16:08;99221.41;;;19.07;50.71
62124;BME280;48110;47.532;19.078;2023-03-31T14:32:06;99170.28;;;21.24;45.19
62124;BME280;48110;47.532;19.078;2023-03-31T14:35:32;99160.34;;;21.60;45.42
62124;BME280;48110;47.532;19.078;2023-03-31T14:38:41;99161.88;;;21.10;45.66
62124;BME280;48110;47.532;19.078;2023-03-31T14:41:51;99143.91;;;20.22;47.50
62124;BME280;48110;47.532;19.078;2023-03-31T14:45:01;99143.78;;;20.02;47.01
62124;BME280;48110;47.532;19.078;2023-03-31T14:48:12;99157.25;;;19.65;46.25
62124;BME280;48110;47.532;19.078;2023-03-31T14:51:24;99140.41;;;19.79;45.98
62124;BME280;48110;47.532;19.078;2023-03-31T14:54:33;99132.53;;;20.10;47.03
62124;BME280;48110;47.532;19.078;2023-03-31T14:57:48;99130.81;;;19.62;48.44
62124;BME280;48110;47.532;19.078;2023-03-31T15:00:56;99126.50;;;19.02;50.54
62124;BME280;48110;47.532;19.078;2023-03-31T15:04:11;99126.56;;;18.85;51.48
62124;BME280;48110;47.532;19.078;2023-03-31T15:07:18;99130.56;;;18.61;51.77
62124;BME280;48110;47.532;19.078;2023-03-31T15:10:23;99135.06;;;18.17;53.01
62124;BME280;48110;47.532;19.078;2023-03-31T15:13:37;99122.06;;;18.09;53.72
62124;BME280;48110;47.532;19.078;2023-03-31T15:16:49;99120.22;;;17.93;55.30
62124;BME280;48110;47.532;19.078;2023-03-31T15:20:00;99120.53;;;17.96;57.02
62124;BME280;48110;47.532;19.078;2023-03-31T15:26:29;99113.72;;;18.05;57.36
62124;BME280;48110;47.532;19.078;2023-03-31T15:29:50;99113.81;;;17.77;55.34
62124;BME280;48110;47.532;19.078;2023-03-31T15:32:57;99119.03;;;17.67;54.70
62124;BME280;48110;47.532;19.078;2023-03-31T15:36:26;99097.62;;;17.55;53.68
62124;BME280;48110;47.532;19.078;2023-03-31T15:39:34;99086.66;;;17.40;54.24
62124;BME280;48110;47.532;19.078;2023-03-31T15:42:45;99079.09;;;17.37;54.71
62124;BME280;48110;47.532;19.078;2023-03-31T15:46:15;99085.91;;;17.28;55.42
62124;BME280;48110;47.532;19.078;2023-03-31T15:49:28;99076.88;;;17.17;56.55
62124;BME280;48110;47.532;19.078;2023-03-31T15:52:35;99084.16;;;17.05;57.61
62124;BME280;48110;47.532;19.078;2023-03-31T15:55:44;99068.31;;;16.87;59.60
62124;BME280;48110;47.532;19.078;2023-03-31T15:58:57;99060.69;;;16.67;60.05
62124;BME280;48110;47.532;19.078;2023-03-31T16:02:20;99055.25;;;16.62;60.33
62124;BME280;48110;47.532;19.078;2023-03-31T16:09:05;99053.44;;;16.39;60.83
62124;BME280;48110;47.532;19.078;2023-03-31T16:12:14;99061.94;;;16.36;61.13
62124;BME280;48110;47.532;19.078;2023-03-31T16:15:28;99055.72;;;16.47;61.08
62124;BME280;48110;47.532;19.078;2023-03-31T16:18:39;99048.53;;;16.36;60.03
62124;BME280;48110;47.532;19.078;2023-03-31T16:21:47;99049.31;;;16.20;59.69
62124;BME280;48110;47.532;19.078;2023-03-31T16:24:59;99046.78;;;16.02;60.26
62124;BME280;48110;47.532;19.078;2023-03-31T16:28:07;99037.03;;;15.84;61.90
62124;BME280;48110;47.532;19.078;2023-03-31T16:31:34;99042.63;;;15.71;61.92
62124;BME280;48110;47.532;19.078;2023-03-31T16:34:55;99063.31;;;15.64;62.54
62124;BME280;48110;47.532;19.078;2023-03-31T16:38:06;99059.72;;;15.58;63.26
62124;BME280;48110;47.532;19.078;2023-03-31T16:41:14;99080.13;;;15.41;63.66
62124;BME280;48110;47.532;19.078;2023-03-31T16:44:21;99087.06;;;15.31;64.67
62124;BME280;48110;47.532;19.078;2023-03-31T16:47:28;99087.63;;;15.21;65.74
62124;BME280;48110;47.532;19.078;2023-03-31T16:50:40;99107.69;;;15.12;66.73
62124;BME280;48110;47.532;19.078;2023-03-31T16:53:48;99098.03;;;15.11;67.13
62124;BME280;48110;47.532;19.078;2023-03-31T16:56:58;99096.53;;;15.03;67.82
62124;BME280;48110;47.532;19.078;2023-03-31T17:00:07;99101.72;;;14.98;68.49
62124;BME280;48110;47.532;19.078;2023-03-31T17:03:15;99106.72;;;14.95;68.84
62124;BME280;48110;47.532;19.078;2023-03-31T17:06:24;99097.75;;;14.89;69.14
62124;BME280;48110;47.532;19.078;2023-03-31T17:09:32;99096.81;;;14.84;69.87
62124;BME280;48110;47.532;19.078;2023-03-31T17:12:39;99109.19;;;14.78;70.73
62124;BME280;48110;47.532;19.078;2023-03-31T17:15:48;99106.63;;;14.71;71.35
62124;BME280;48110;47.532;19.078;2023-03-31T17:19:12;99122.13;;;14.63;72.93
62124;BME280;48110;47.532;19.078;2023-03-31T17:22:23;99117.75;;;14.68;72.94
62124;BME280;48110;47.532;19.078;2023-03-31T17:25:34;99115.25;;;14.55;73.75
62124;BME280;48110;47.532;19.078;2023-03-31T17:28:41;99115.31;;;14.49;76.07
62124;BME280;48110;47.532;19.078;2023-03-31T17:31:48;99108.59;;;14.46;76.29
62124;BME280;48110;47.532;19.078;2023-03-31T17:34:59;99105.97;;;14.40;76.18
62124;BME280;48110;47.532;19.078;2023-03-31T17:38:11;99106.00;;;14.33;79.31
62124;BME280;48110;47.532;19.078;2023-03-31T17:41:23;99108.31;;;14.29;78.89
62124;BME280;48110;47.532;19.078;2023-03-31T17:44:31;99097.06;;;14.27;78.75
62124;BME280;48110;47.532;19.078;2023-03-31T17:47:38;99096.69;;;14.24;78.58
62124;BME280;48110;47.532;19.078;2023-03-31T17:50:46;99091.12;;;14.25;79.21
62124;BME280;48110;47.532;19.078;2023-03-31T17:53:57;99079.06;;;14.23;81.07
62124;BME280;48110;47.532;19.078;2023-03-31T17:57:07;99076.97;;;14.25;81.35
62124;BME280;48110;47.532;19.078;2023-03-31T18:00:14;99084.47;;;14.16;81.69
62124;BME280;48110;47.532;19.078;2023-03-31T18:03:21;99091.88;;;14.14;81.48
62124;BME280;48110;47.532;19.078;2023-03-31T18:06:28;99075.28;;;14.12;81.31
62124;BME280;48110;47.532;19.078;2023-03-31T18:09:36;99088.03;;;14.10;81.82
62124;BME280;48110;47.532;19.078;2023-03-31T18:12:43;99095.66;;;14.07;83.46
62124;BME280;48110;47.532;19.078;2023-03-31T18:15:52;99078.22;;;14.04;84.22
62124;BME280;48110;47.532;19.078;2023-03-31T18:18:58;99070.22;;;14.04;84.65
62124;BME280;48110;47.532;19.078;2023-03-31T18:22:05;99074.84;;;13.97;85.42
62124;BME280;48110;47.532;19.078;2023-03-31T18:25:09;99062.53;;;13.96;85.49
62124;BME280;48110;47.532;19.078;2023-03-31T18:28:18;99076.44;;;13.80;88.99
62124;BME280;48110;47.532;19.078;2023-03-31T18:31:30;99085.31;;;13.74;90.68
62124;BME280;48110;47.532;19.078;2023-03-31T18:34:38;99095.16;;;13.73;89.37
62124;BME280;48110;47.532;19.078;2023-03-31T18:37:47;99090.03;;;13.72;90.79
62124;BME280;48110;47.532;19.078;2023-03-31T18:40:57;99086.19;;;13.68;91.62
62124;BME280;48110;47.532;19.078;2023-03-31T18:44:04;99089.22;;;13.71;91.64
62124;BME280;48110;47.532;19.078;2023-03-31T18:47:14;99086.66;;;13.65;94.08
62124;BME280;48110;47.532;19.078;2023-03-31T18:50:22;99101.22;;;13.62;94.24
62124;BME280;48110;47.532;19.078;2023-03-31T18:53:29;99102.19;;;13.68;95.16
62124;BME280;48110;47.532;19.078;2023-03-31T18:56:36;99100.66;;;13.54;97.13
62124;BME280;48110;47.532;19.078;2023-03-31T18:59:43;99101.53;;;13.47;99.02
62124;BME280;48110;47.532;19.078;2023-03-31T19:02:50;99105.97;;;13.29;100.00
62124;BME280;48110;47.532;19.078;2023-03-31T19:05:59;99102.41;;;13.10;100.00
62124;BME280;48110;47.532;19.078;2023-03-31T19:09:07;99107.56;;;13.05;100.00
62124;BME280;48110;47.532;19.078;2023-03-31T19:12:16;99120.97;;;12.85;100.00
62124;BME280;48110;47.532;19.078;2023-03-31T19:15:21;99109.34;;;12.73;100.00
62124;BME280;48110;47.532;19.078;2023-03-31T19:18:26;99112.00;;;12.73;100.00
62124;BME280;48110;47.532;19.078;2023-03-31T19:21:36;99107.31;;;12.75;100.00